sensor_id;sensor_type;location;lat;lon;timestamp;temperature;humidity
18454;DHT22;9356;52.202;20.950;2023-12-20T00:01:08;6.30;99.90
18454;DHT22;9356;52.202;20.950;2023-12-20T00:02:15;6.40;99.90
18454;DHT22;9356;52.202;20.950;2023-12-20T00:03:21;6.20;99.90
18454;DHT22;9356;52.202;20.950;2023-12-20T00:04:25;6.40;99.90
18454;DHT22;9356;52.202;20.950;2023-12-20T00:05:37;6.30;99.90
18454;DHT22;9356;52.202;20.950;2023-12-20T00:06:49;6.30;99.90
18454;DHT22;9356;52.202;20.950;2023-12-20T00:07:56;6.40;99.90
18454;DHT22;9356;52.202;20.950;2023-12-20T00:08:59;6.20;99.90
18454;DHT22;9356;52.202;20.950;2023-12-20T00:10:09;6.30;99.90
18454;DHT22;9356;52.202;20.950;2023-12-20T00:11:17;6.30;99.90
18454;DHT22;9356;52.202;20.950;2023-12-20T00:12:21;6.30;99.90
18454;DHT22;9356;52.202;20.950;2023-12-20T00:13:33;6.40;99.90
18454;DHT22;9356;52.202;20.950;2023-12-20T00:14:37;6.30;99.90
18454;DHT22;9356;52.202;20.950;2023-12-20T00:15:49;6.40;99.90
18454;DHT22;9356;52.202;20.950;2023-12-20T00:16:57;6.40;99.90
18454;DHT22;9356;52.202;20.950;2023-12-20T00:18:08;6.30;99.90
18454;DHT22;9356;52.202;20.950;2023-12-20T00:19:16;6.40;99.90
18454;DHT22;9356;52.202;20.950;2023-12-20T00:20:24;6.40;99.90
18454;DHT22;9356;52.202;20.950;2023-12-20T00:21:33;6.40;99.90
18454;DHT22;9356;52.202;20.950;2023-12-20T00:22:41;6.40;99.90
18454;DHT22;9356;52.202;20.950;2023-12-20T00:23:47;6.30;99.90
18454;DHT22;9356;52.202;20.950;2023-12-20T00:24:53;6.30;99.90
18454;DHT22;9356;52.202;20.950;2023-12-20T00:26:01;6.20;99.90
18454;DHT22;9356;52.202;20.950;2023-12-20T00:27:07;6.30;99.90
18454;DHT22;9356;52.202;20.950;2023-12-20T00:28:13;6.30;99.90
18454;DHT22;9356;52.202;20.950;2023-12-20T00:29:17;6.40;99.90
18454;DHT22;9356;52.202;20.950;2023-12-20T00:30:25;6.30;99.90
18454;DHT22;9356;52.202;20.950;2023-12-20T00:31:33;6.30;99.90
18454;DHT22;9356;52.202;20.950;2023-12-20T00:32:45;6.20;99.90
18454;DHT22;9356;52.202;20.950;2023-12-20T00:33:52;6.30;99.90
18454;DHT22;9356;52.202;20.950;2023-12-20T00:34:59;6.40;99.90
18454;DHT22;9356;52.202;20.950;2023-12-20T00:36:05;6.40;99.90
18454;DHT22;9356;52.202;20.950;2023-12-20T00:37:11;6.40;99.90
18454;DHT22;9356;52.202;20.950;2023-12-20T00:38:25;6.30;99.90
18454;DHT22;9356;52.202;20.950;2023-12-20T00:39:33;6.40;99.90
18454;DHT22;9356;52.202;20.950;2023-12-20T00:40:40;6.40;99.90
18454;DHT22;9356;52.202;20.950;2023-12-20T00:41:48;6.30;99.90
18454;DHT22;9356;52.202;20.950;2023-12-20T00:42:53;6.30;99.90
18454;DHT22;9356;52.202;20.950;2023-12-20T00:44:05;6.30;99.90
18454;DHT22;9356;52.202;20.950;2023-12-20T00:45:12;6.30;99.90
18454;DHT22;9356;52.202;20.950;2023-12-20T00:46:17;6.40;99.90
18454;DHT22;9356;52.202;20.950;2023-12-20T00:47:25;6.50;99.90
18454;DHT22;9356;52.202;20.950;2023-12-20T00:48:29;6.40;99.90
18454;DHT22;9356;52.202;20.950;2023-12-20T00:49:33;6.60;99.90
18454;DHT22;9356;52.202;20.950;2023-12-20T00:50:45;6.60;99.90
18454;DHT22;9356;52.202;20.950;2023-12-20T00:51:52;6.50;99.90
18454;DHT22;9356;52.202;20.950;2023-12-20T00:52:56;6.40;99.90
18454;DHT22;9356;52.202;20.950;2023-12-20T00:53:59;6.40;99.90
18454;DHT22;9356;52.202;20.950;2023-12-20T00:55:08;6.40;99.90
18454;DHT22;9356;52.202;20.950;2023-12-20T00:56:13;6.40;99.90
18454;DHT22;9356;52.202;20.950;2023-12-20T00:57:20;6.40;99.90
18454;DHT22;9356;52.202;20.950;2023-12-20T00:58:29;6.30;99.90
18454;DHT22;9356;52.202;20.950;2023-12-20T00:59:37;6.40;99.90
18454;DHT22;9356;52.202;20.950;2023-12-20T01:00:48;6.50;99.90
18454;DHT22;9356;52.202;20.950;2023-12-20T01:01:56;6.50;99.90
18454;DHT22;9356;52.202;20.950;2023-12-20T01:03:00;6.40;99.90
18454;DHT22;9356;52.202;20.950;2023-12-20T01:04:05;6.50;99.90
18454;DHT22;9356;52.202;20.950;2023-12-20T01:05:13;6.40;99.90
18454;DHT22;9356;52.202;20.950;2023-12-20T01:06:21;6.40;99.90
18454;DHT22;9356;52.202;20.950;2023-12-20T01:07:28;6.40;99.90
18454;DHT22;9356;52.202;20.950;2023-12-20T01:08:33;6.40;99.90
18454;DHT22;9356;52.202;20.950;2023-12-20T01:09:37;6.50;99.90
18454;DHT22;9356;52.202;20.950;2023-12-20T01:10:41;6.40;99.90
18454;DHT22;9356;52.202;20.950;2023-12-20T01:11:56;6.40;99.90
18454;DHT22;9356;52.202;20.950;2023-12-20T01:13:05;6.40;99.90
18454;DHT22;9356;52.202;20.950;2023-12-20T01:14:08;6.40;99.90
18454;DHT22;9356;52.202;20.950;2023-12-20T01:15:15;6.40;99.90
18454;DHT22;9356;52.202;20.950;2023-12-20T01:16:19;6.50;99.90
18454;DHT22;9356;52.202;20.950;2023-12-20T01:17:32;6.50;99.90
18454;DHT22;9356;52.202;20.950;2023-12-20T01:18:37;6.60;99.90
18454;DHT22;9356;52.202;20.950;2023-12-20T01:19:44;6.70;99.90
18454;DHT22;9356;52.202;20.950;2023-12-20T01:20:49;6.60;99.90
18454;DHT22;9356;52.202;20.950;2023-12-20T01:21:57;6.40;99.90
18454;DHT22;9356;52.202;20.950;2023-12-20T01:23:05;6.50;99.90
18454;DHT22;9356;52.202;20.950;2023-12-20T01:24:17;6.50;99.90
18454;DHT22;9356;52.202;20.950;2023-12-20T01:25:21;6.50;99.90
18454;DHT22;9356;52.202;20.950;2023-12-20T01:26:33;6.50;99.90
18454;DHT22;9356;52.202;20.950;2023-12-20T01:27:35;6.40;99.90
18454;DHT22;9356;52.202;20.950;2023-12-20T01:28:59;6.50;99.90
18454;DHT22;9356;52.202;20.950;2023-12-20T01:30:16;6.70;99.90
18454;DHT22;9356;52.202;20.950;2023-12-20T01:31:26;6.60;99.90
18454;DHT22;9356;52.202;20.950;2023-12-20T01:32:37;6.60;99.90
18454;DHT22;9356;52.202;20.950;2023-12-20T01:33:45;6.60;99.90
18454;DHT22;9356;52.202;20.950;2023-12-20T01:34:56;6.60;99.90
18454;DHT22;9356;52.202;20.950;2023-12-20T01:36:04;6.60;99.90
18454;DHT22;9356;52.202;20.950;2023-12-20T01:37:09;6.50;99.90
18454;DHT22;9356;52.202;20.950;2023-12-20T01:38:12;6.50;99.90
18454;DHT22;9356;52.202;20.950;2023-12-20T01:39:17;6.60;99.90
18454;DHT22;9356;52.202;20.950;2023-12-20T01:40:31;6.60;99.90
18454;DHT22;9356;52.202;20.950;2023-12-20T01:41:37;6.60;99.90
18454;DHT22;9356;52.202;20.950;2023-12-20T01:42:41;6.50;99.90
18454;DHT22;9356;52.202;20.950;2023-12-20T01:43:52;6.50;99.90
18454;DHT22;9356;52.202;20.950;2023-12-20T01:45:05;6.50;99.90
18454;DHT22;9356;52.202;20.950;2023-12-20T01:46:14;6.50;99.90
18454;DHT22;9356;52.202;20.950;2023-12-20T01:47:23;6.50;99.90
18454;DHT22;9356;52.202;20.950;2023-12-20T01:48:29;6.60;99.90
18454;DHT22;9356;52.202;20.950;2023-12-20T01:49:41;6.50;99.90
18454;DHT22;9356;52.202;20.950;2023-12-20T01:50:51;6.50;99.90
18454;DHT22;9356;52.202;20.950;2023-12-20T01:51:56;6.50;99.90
18454;DHT22;9356;52.202;20.950;2023-12-20T01:53:05;6.40;99.90
18454;DHT22;9356;52.202;20.950;2023-12-20T01:54:09;6.50;99.90
18454;DHT22;9356;52.202;20.950;2023-12-20T01:55:13;6.50;99.90
18454;DHT22;9356;52.202;20.950;2023-12-20T01:56:20;6.60;99.90
18454;DHT22;9356;52.202;20.950;2023-12-20T01:57:29;6.60;99.90
18454;DHT22;9356;52.202;20.950;2023-12-20T01:58:44;6.50;99.90
18454;DHT22;9356;52.202;20.950;2023-12-20T01:59:53;6.70;99.90
18454;DHT22;9356;52.202;20.950;2023-12-20T02:00:57;6.80;99.90
18454;DHT22;9356;52.202;20.950;2023-12-20T02:02:05;6.80;99.90
18454;DHT22;9356;52.202;20.950;2023-12-20T02:03:13;6.80;99.90
18454;DHT22;9356;52.202;20.950;2023-12-20T02:04:20;6.90;99.90
18454;DHT22;9356;52.202;20.950;2023-12-20T02:05:25;6.90;99.90
18454;DHT22;9356;52.202;20.950;2023-12-20T02:06:35;6.80;99.90
18454;DHT22;9356;52.202;20.950;2023-12-20T02:07:37;6.80;99.90
18454;DHT22;9356;52.202;20.950;2023-12-20T02:08:52;6.90;99.90
18454;DHT22;9356;52.202;20.950;2023-12-20T02:09:57;6.90;99.90
18454;DHT22;9356;52.202;20.950;2023-12-20T02:11:05;6.80;99.90
18454;DHT22;9356;52.202;20.950;2023-12-20T02:12:10;6.80;99.90
18454;DHT22;9356;52.202;20.950;2023-12-20T02:13:16;6.80;99.90
18454;DHT22;9356;52.202;20.950;2023-12-20T02:14:21;6.80;99.90
18454;DHT22;9356;52.202;20.950;2023-12-20T02:15:25;6.70;99.90
18454;DHT22;9356;52.202;20.950;2023-12-20T02:16:33;6.70;99.90
18454;DHT22;9356;52.202;20.950;2023-12-20T02:17:41;6.80;99.90
18454;DHT22;9356;52.202;20.950;2023-12-20T02:18:51;6.90;99.90
18454;DHT22;9356;52.202;20.950;2023-12-20T02:19:57;6.90;99.90
18454;DHT22;9356;52.202;20.950;2023-12-20T02:21:04;6.90;99.90
18454;DHT22;9356;52.202;20.950;2023-12-20T02:22:13;7.00;99.90
18454;DHT22;9356;52.202;20.950;2023-12-20T02:23:21;7.00;99.90
18454;DHT22;9356;52.202;20.950;2023-12-20T02:24:24;7.00;99.90
18454;DHT22;9356;52.202;20.950;2023-12-20T02:25:29;7.00;99.90
18454;DHT22;9356;52.202;20.950;2023-12-20T02:26:37;7.10;99.90
18454;DHT22;9356;52.202;20.950;2023-12-20T02:27:53;7.10;99.90
18454;DHT22;9356;52.202;20.950;2023-12-20T02:29:00;7.20;99.90
18454;DHT22;9356;52.202;20.950;2023-12-20T02:30:13;7.00;99.90
18454;DHT22;9356;52.202;20.950;2023-12-20T02:31:20;7.00;99.90
18454;DHT22;9356;52.202;20.950;2023-12-20T02:32:29;7.10;99.90
18454;DHT22;9356;52.202;20.950;2023-12-20T02:33:44;7.00;99.90
18454;DHT22;9356;52.202;20.950;2023-12-20T02:34:52;7.10;99.90
18454;DHT22;9356;52.202;20.950;2023-12-20T02:36:00;7.10;99.90
18454;DHT22;9356;52.202;20.950;2023-12-20T02:37:05;7.20;99.90
18454;DHT22;9356;52.202;20.950;2023-12-20T02:38:13;7.20;99.90
18454;DHT22;9356;52.202;20.950;2023-12-20T02:39:20;7.10;99.90
18454;DHT22;9356;52.202;20.950;2023-12-20T02:40:25;7.10;99.90
18454;DHT22;9356;52.202;20.950;2023-12-20T02:41:36;7.00;99.90
18454;DHT22;9356;52.202;20.950;2023-12-20T02:42:41;6.90;99.90
18454;DHT22;9356;52.202;20.950;2023-12-20T02:43:52;6.90;99.90
18454;DHT22;9356;52.202;20.950;2023-12-20T02:44:57;6.90;99.90
18454;DHT22;9356;52.202;20.950;2023-12-20T02:46:04;7.00;99.90
18454;DHT22;9356;52.202;20.950;2023-12-20T02:47:13;7.10;99.90
18454;DHT22;9356;52.202;20.950;2023-12-20T02:48:22;7.10;99.90
18454;DHT22;9356;52.202;20.950;2023-12-20T02:49:25;7.20;99.90
18454;DHT22;9356;52.202;20.950;2023-12-20T02:50:31;7.20;99.90
18454;DHT22;9356;52.202;20.950;2023-12-20T02:51:36;7.10;99.90
18454;DHT22;9356;52.202;20.950;2023-12-20T02:52:48;7.10;99.90
18454;DHT22;9356;52.202;20.950;2023-12-20T02:53:57;7.10;99.90
18454;DHT22;9356;52.202;20.950;2023-12-20T02:55:04;7.00;99.90
18454;DHT22;9356;52.202;20.950;2023-12-20T02:56:10;6.90;99.90
18454;DHT22;9356;52.202;20.950;2023-12-20T02:57:25;7.00;99.90
18454;DHT22;9356;52.202;20.950;2023-12-20T02:58:33;6.90;99.90
18454;DHT22;9356;52.202;20.950;2023-12-20T02:59:39;6.90;99.90
18454;DHT22;9356;52.202;20.950;2023-12-20T03:00:45;6.90;99.90
18454;DHT22;9356;52.202;20.950;2023-12-20T03:01:53;6.90;99.90
18454;DHT22;9356;52.202;20.950;2023-12-20T03:03:04;6.80;99.90
18454;DHT22;9356;52.202;20.950;2023-12-20T03:04:09;6.80;99.90
18454;DHT22;9356;52.202;20.950;2023-12-20T03:05:11;6.80;99.90
18454;DHT22;9356;52.202;20.950;2023-12-20T03:06:18;6.90;99.90
18454;DHT22;9356;52.202;20.950;2023-12-20T03:08:40;6.90;99.90
18454;DHT22;9356;52.202;20.950;2023-12-20T03:09:47;6.80;99.90
18454;DHT22;9356;52.202;20.950;2023-12-20T03:11:13;6.80;99.90
18454;DHT22;9356;52.202;20.950;2023-12-20T03:12:20;6.90;99.90
18454;DHT22;9356;52.202;20.950;2023-12-20T03:13:29;6.90;99.90
18454;DHT22;9356;52.202;20.950;2023-12-20T03:14:33;7.00;99.90
18454;DHT22;9356;52.202;20.950;2023-12-20T03:15:44;7.00;99.90
18454;DHT22;9356;52.202;20.950;2023-12-20T03:16:52;6.90;99.90
18454;DHT22;9356;52.202;20.950;2023-12-20T03:17:59;6.90;99.90
18454;DHT22;9356;52.202;20.950;2023-12-20T03:19:05;6.90;99.90
18454;DHT22;9356;52.202;20.950;2023-12-20T03:20:16;6.90;99.90
18454;DHT22;9356;52.202;20.950;2023-12-20T03:21:25;6.90;99.90
18454;DHT22;9356;52.202;20.950;2023-12-20T03:22:33;6.90;99.90
18454;DHT22;9356;52.202;20.950;2023-12-20T03:23:40;6.80;99.90
18454;DHT22;9356;52.202;20.950;2023-12-20T03:24:53;6.90;99.90
18454;DHT22;9356;52.202;20.950;2023-12-20T03:25:55;6.80;99.90
18454;DHT22;9356;52.202;20.950;2023-12-20T03:27:01;6.80;99.90
18454;DHT22;9356;52.202;20.950;2023-12-20T03:28:16;6.90;99.90
18454;DHT22;9356;52.202;20.950;2023-12-20T03:29:29;6.80;99.90
18454;DHT22;9356;52.202;20.950;2023-12-20T03:31:07;7.00;99.90
18454;DHT22;9356;52.202;20.950;2023-12-20T03:32:20;6.90;99.90
18454;DHT22;9356;52.202;20.950;2023-12-20T03:33:23;7.00;99.90
18454;DHT22;9356;52.202;20.950;2023-12-20T03:34:28;7.00;99.90
18454;DHT22;9356;52.202;20.950;2023-12-20T03:35:39;7.20;99.90
18454;DHT22;9356;52.202;20.950;2023-12-20T03:36:45;7.00;99.90
18454;DHT22;9356;52.202;20.950;2023-12-20T03:37:52;7.10;99.90
18454;DHT22;9356;52.202;20.950;2023-12-20T03:38:57;7.10;99.90
18454;DHT22;9356;52.202;20.950;2023-12-20T03:40:08;7.00;99.90
18454;DHT22;9356;52.202;20.950;2023-12-20T03:41:13;7.10;99.90
18454;DHT22;9356;52.202;20.950;2023-12-20T03:42:21;7.10;99.90
18454;DHT22;9356;52.202;20.950;2023-12-20T03:43:29;7.20;99.90
18454;DHT22;9356;52.202;20.950;2023-12-20T03:44:41;7.10;99.90
18454;DHT22;9356;52.202;20.950;2023-12-20T03:45:49;7.10;99.90
18454;DHT22;9356;52.202;20.950;2023-12-20T03:46:57;7.10;99.90
18454;DHT22;9356;52.202;20.950;2023-12-20T03:48:00;7.20;99.90
18454;DHT22;9356;52.202;20.950;2023-12-20T03:49:11;7.10;99.90
18454;DHT22;9356;52.202;20.950;2023-12-20T03:50:17;6.90;99.90
18454;DHT22;9356;52.202;20.950;2023-12-20T03:51:45;6.90;99.90
18454;DHT22;9356;52.202;20.950;2023-12-20T03:52:56;6.90;99.90
18454;DHT22;9356;52.202;20.950;2023-12-20T03:54:05;6.90;99.90
18454;DHT22;9356;52.202;20.950;2023-12-20T03:55:12;6.90;99.90
18454;DHT22;9356;52.202;20.950;2023-12-20T03:56:19;7.00;99.90
18454;DHT22;9356;52.202;20.950;2023-12-20T03:57:25;7.00;99.90
18454;DHT22;9356;52.202;20.950;2023-12-20T03:58:33;7.00;99.90
18454;DHT22;9356;52.202;20.950;2023-12-20T03:59:41;7.00;99.90
18454;DHT22;9356;52.202;20.950;2023-12-20T04:00:51;6.90;99.90
18454;DHT22;9356;52.202;20.950;2023-12-20T04:01:57;6.90;99.90
18454;DHT22;9356;52.202;20.950;2023-12-20T04:03:06;6.90;99.90
18454;DHT22;9356;52.202;20.950;2023-12-20T04:04:20;7.00;99.90
18454;DHT22;9356;52.202;20.950;2023-12-20T04:05:26;6.90;99.90
18454;DHT22;9356;52.202;20.950;2023-12-20T04:06:32;6.90;99.90
18454;DHT22;9356;52.202;20.950;2023-12-20T04:07:49;6.90;99.90
18454;DHT22;9356;52.202;20.950;2023-12-20T04:08:56;6.80;99.90
18454;DHT22;9356;52.202;20.950;2023-12-20T04:10:03;6.90;99.90
18454;DHT22;9356;52.202;20.950;2023-12-20T04:11:13;6.80;99.90
18454;DHT22;9356;52.202;20.950;2023-12-20T04:12:21;6.80;99.90
18454;DHT22;9356;52.202;20.950;2023-12-20T04:13:29;6.80;99.90
18454;DHT22;9356;52.202;20.950;2023-12-20T04:14:36;6.70;99.90
18454;DHT22;9356;52.202;20.950;2023-12-20T04:15:41;6.80;99.90
18454;DHT22;9356;52.202;20.950;2023-12-20T04:16:49;6.80;99.90
18454;DHT22;9356;52.202;20.950;2023-12-20T04:17:56;6.90;99.90
18454;DHT22;9356;52.202;20.950;2023-12-20T04:19:06;6.90;99.90
18454;DHT22;9356;52.202;20.950;2023-12-20T04:20:10;6.90;99.90
18454;DHT22;9356;52.202;20.950;2023-12-20T04:21:21;6.90;99.90
18454;DHT22;9356;52.202;20.950;2023-12-20T04:22:29;6.90;99.90
18454;DHT22;9356;52.202;20.950;2023-12-20T04:23:37;6.90;99.90
18454;DHT22;9356;52.202;20.950;2023-12-20T04:24:45;6.80;99.90
18454;DHT22;9356;52.202;20.950;2023-12-20T04:25:54;6.90;99.90
18454;DHT22;9356;52.202;20.950;2023-12-20T04:26:58;6.70;99.90
18454;DHT22;9356;52.202;20.950;2023-12-20T04:28:10;6.80;99.90
18454;DHT22;9356;52.202;20.950;2023-12-20T04:29:13;6.80;99.90
18454;DHT22;9356;52.202;20.950;2023-12-20T04:30:21;6.90;99.90
18454;DHT22;9356;52.202;20.950;2023-12-20T04:31:26;6.80;99.90
18454;DHT22;9356;52.202;20.950;2023-12-20T04:32:32;6.80;99.90
18454;DHT22;9356;52.202;20.950;2023-12-20T04:33:37;6.70;99.90
18454;DHT22;9356;52.202;20.950;2023-12-20T04:34:40;6.80;99.90
18454;DHT22;9356;52.202;20.950;2023-12-20T04:35:46;6.70;99.90
18454;DHT22;9356;52.202;20.950;2023-12-20T04:36:55;6.80;99.90
18454;DHT22;9356;52.202;20.950;2023-12-20T04:38:00;6.90;99.90
18454;DHT22;9356;52.202;20.950;2023-12-20T04:39:09;7.00;99.90
18454;DHT22;9356;52.202;20.950;2023-12-20T04:40:20;6.90;99.90
18454;DHT22;9356;52.202;20.950;2023-12-20T04:41:26;7.10;99.90
18454;DHT22;9356;52.202;20.950;2023-12-20T04:42:38;7.10;99.90
18454;DHT22;9356;52.202;20.950;2023-12-20T04:43:42;7.10;99.90
18454;DHT22;9356;52.202;20.950;2023-12-20T04:44:49;7.20;99.90
18454;DHT22;9356;52.202;20.950;2023-12-20T04:45:53;7.20;99.90
18454;DHT22;9356;52.202;20.950;2023-12-20T04:47:03;7.20;99.90
18454;DHT22;9356;52.202;20.950;2023-12-20T04:48:08;7.20;99.90
18454;DHT22;9356;52.202;20.950;2023-12-20T04:49:17;7.20;99.90
18454;DHT22;9356;52.202;20.950;2023-12-20T04:50:22;7.30;99.90
18454;DHT22;9356;52.202;20.950;2023-12-20T04:51:32;7.20;99.90
18454;DHT22;9356;52.202;20.950;2023-12-20T04:52:38;7.20;99.90
18454;DHT22;9356;52.202;20.950;2023-12-20T04:53:45;7.20;99.90
18454;DHT22;9356;52.202;20.950;2023-12-20T04:54:50;7.20;99.90
18454;DHT22;9356;52.202;20.950;2023-12-20T04:55:58;7.30;99.90
18454;DHT22;9356;52.202;20.950;2023-12-20T04:57:06;7.30;99.90
18454;DHT22;9356;52.202;20.950;2023-12-20T04:58:14;7.30;99.90
18454;DHT22;9356;52.202;20.950;2023-12-20T04:59:18;7.20;99.90
18454;DHT22;9356;52.202;20.950;2023-12-20T05:00:30;7.30;99.90
18454;DHT22;9356;52.202;20.950;2023-12-20T05:01:41;7.30;99.90
18454;DHT22;9356;52.202;20.950;2023-12-20T05:02:49;7.40;99.90
18454;DHT22;9356;52.202;20.950;2023-12-20T05:03:54;7.40;99.90
18454;DHT22;9356;52.202;20.950;2023-12-20T05:05:02;7.40;99.90
18454;DHT22;9356;52.202;20.950;2023-12-20T05:06:13;7.40;99.90
18454;DHT22;9356;52.202;20.950;2023-12-20T05:07:25;7.50;99.90
18454;DHT22;9356;52.202;20.950;2023-12-20T05:08:33;7.40;99.90
18454;DHT22;9356;52.202;20.950;2023-12-20T05:09:42;7.30;99.90
18454;DHT22;9356;52.202;20.950;2023-12-20T05:10:48;7.30;99.90
18454;DHT22;9356;52.202;20.950;2023-12-20T05:11:53;7.20;99.90
18454;DHT22;9356;52.202;20.950;2023-12-20T05:12:57;7.30;99.90
18454;DHT22;9356;52.202;20.950;2023-12-20T05:14:04;7.30;99.90
18454;DHT22;9356;52.202;20.950;2023-12-20T05:15:09;7.40;99.90
18454;DHT22;9356;52.202;20.950;2023-12-20T05:16:18;7.40;99.90
18454;DHT22;9356;52.202;20.950;2023-12-20T05:17:37;7.40;99.90
18454;DHT22;9356;52.202;20.950;2023-12-20T05:18:45;7.20;99.90
18454;DHT22;9356;52.202;20.950;2023-12-20T05:19:52;7.20;99.90
18454;DHT22;9356;52.202;20.950;2023-12-20T05:21:00;7.30;99.90
18454;DHT22;9356;52.202;20.950;2023-12-20T05:22:06;7.30;99.90
18454;DHT22;9356;52.202;20.950;2023-12-20T05:23:16;7.30;99.90
18454;DHT22;9356;52.202;20.950;2023-12-20T05:24:22;7.20;99.90
18454;DHT22;9356;52.202;20.950;2023-12-20T05:25:29;7.20;99.90
18454;DHT22;9356;52.202;20.950;2023-12-20T05:26:40;7.20;99.90
18454;DHT22;9356;52.202;20.950;2023-12-20T05:27:45;7.20;99.90
18454;DHT22;9356;52.202;20.950;2023-12-20T05:28:51;7.20;99.90
18454;DHT22;9356;52.202;20.950;2023-12-20T05:30:13;7.20;99.90
18454;DHT22;9356;52.202;20.950;2023-12-20T05:31:22;7.10;99.90
18454;DHT22;9356;52.202;20.950;2023-12-20T05:32:28;7.10;99.90
18454;DHT22;9356;52.202;20.950;2023-12-20T05:33:34;7.10;99.90
18454;DHT22;9356;52.202;20.950;2023-12-20T05:34:41;7.10;99.90
18454;DHT22;9356;52.202;20.950;2023-12-20T05:35:46;7.10;99.90
18454;DHT22;9356;52.202;20.950;2023-12-20T05:36:57;7.10;99.90
18454;DHT22;9356;52.202;20.950;2023-12-20T05:38:05;7.10;99.90
18454;DHT22;9356;52.202;20.950;2023-12-20T05:39:12;7.20;99.90
18454;DHT22;9356;52.202;20.950;2023-12-20T05:40:17;7.20;99.90
18454;DHT22;9356;52.202;20.950;2023-12-20T05:41:25;7.20;99.90
18454;DHT22;9356;52.202;20.950;2023-12-20T05:42:34;7.20;99.90
18454;DHT22;9356;52.202;20.950;2023-12-20T05:43:45;7.10;99.90
18454;DHT22;9356;52.202;20.950;2023-12-20T05:44:50;7.20;99.90
18454;DHT22;9356;52.202;20.950;2023-12-20T05:45:58;7.30;99.90
18454;DHT22;9356;52.202;20.950;2023-12-20T05:47:08;7.20;99.90
18454;DHT22;9356;52.202;20.950;2023-12-20T05:48:13;7.10;99.90
18454;DHT22;9356;52.202;20.950;2023-12-20T05:49:24;7.10;99.90
18454;DHT22;9356;52.202;20.950;2023-12-20T05:50:29;7.10;99.90
18454;DHT22;9356;52.202;20.950;2023-12-20T05:51:37;7.10;99.90
18454;DHT22;9356;52.202;20.950;2023-12-20T05:52:46;7.10;99.90
18454;DHT22;9356;52.202;20.950;2023-12-20T05:53:51;7.20;99.90
18454;DHT22;9356;52.202;20.950;2023-12-20T05:54:57;7.10;99.90
18454;DHT22;9356;52.202;20.950;2023-12-20T05:56:09;7.00;99.90
18454;DHT22;9356;52.202;20.950;2023-12-20T05:57:18;7.10;99.90
18454;DHT22;9356;52.202;20.950;2023-12-20T05:58:21;6.90;99.90
18454;DHT22;9356;52.202;20.950;2023-12-20T05:59:25;6.90;99.90
18454;DHT22;9356;52.202;20.950;2023-12-20T06:00:38;6.90;99.90
18454;DHT22;9356;52.202;20.950;2023-12-20T06:01:54;6.80;99.90
18454;DHT22;9356;52.202;20.950;2023-12-20T06:02:57;6.80;99.90
18454;DHT22;9356;52.202;20.950;2023-12-20T06:04:06;6.80;99.90
18454;DHT22;9356;52.202;20.950;2023-12-20T06:05:17;6.90;99.90
18454;DHT22;9356;52.202;20.950;2023-12-20T06:06:39;7.00;99.90
18454;DHT22;9356;52.202;20.950;2023-12-20T06:07:42;6.90;99.90
18454;DHT22;9356;52.202;20.950;2023-12-20T06:08:56;6.90;99.90
18454;DHT22;9356;52.202;20.950;2023-12-20T06:10:02;6.90;99.90
18454;DHT22;9356;52.202;20.950;2023-12-20T06:11:12;7.10;99.90
18454;DHT22;9356;52.202;20.950;2023-12-20T06:12:18;7.20;99.90
18454;DHT22;9356;52.202;20.950;2023-12-20T06:13:29;7.20;99.90
18454;DHT22;9356;52.202;20.950;2023-12-20T06:14:37;7.10;99.90
18454;DHT22;9356;52.202;20.950;2023-12-20T06:15:44;7.10;99.90
18454;DHT22;9356;52.202;20.950;2023-12-20T06:16:52;7.20;99.90
18454;DHT22;9356;52.202;20.950;2023-12-20T06:18:00;7.20;99.90
18454;DHT22;9356;52.202;20.950;2023-12-20T06:19:06;7.30;99.90
18454;DHT22;9356;52.202;20.950;2023-12-20T06:20:14;7.30;99.90
18454;DHT22;9356;52.202;20.950;2023-12-20T06:21:18;7.30;99.90
18454;DHT22;9356;52.202;20.950;2023-12-20T06:22:33;7.20;99.90
18454;DHT22;9356;52.202;20.950;2023-12-20T06:23:40;7.20;99.90
18454;DHT22;9356;52.202;20.950;2023-12-20T06:24:46;7.10;99.90
18454;DHT22;9356;52.202;20.950;2023-12-20T06:25:48;7.00;99.90
18454;DHT22;9356;52.202;20.950;2023-12-20T06:26:54;7.00;99.90
18454;DHT22;9356;52.202;20.950;2023-12-20T06:28:02;7.00;99.90
18454;DHT22;9356;52.202;20.950;2023-12-20T06:29:17;6.90;99.90
18454;DHT22;9356;52.202;20.950;2023-12-20T06:30:25;6.80;99.90
18454;DHT22;9356;52.202;20.950;2023-12-20T06:31:37;6.90;99.90
18454;DHT22;9356;52.202;20.950;2023-12-20T06:32:42;6.90;99.90
18454;DHT22;9356;52.202;20.950;2023-12-20T06:33:52;6.90;99.90
18454;DHT22;9356;52.202;20.950;2023-12-20T06:35:00;6.90;99.90
18454;DHT22;9356;52.202;20.950;2023-12-20T06:36:13;6.90;99.90
18454;DHT22;9356;52.202;20.950;2023-12-20T06:37:21;6.90;99.90
18454;DHT22;9356;52.202;20.950;2023-12-20T06:38:29;6.80;99.90
18454;DHT22;9356;52.202;20.950;2023-12-20T06:39:36;6.80;99.90
18454;DHT22;9356;52.202;20.950;2023-12-20T06:40:45;6.70;99.90
18454;DHT22;9356;52.202;20.950;2023-12-20T06:41:51;6.70;99.90
18454;DHT22;9356;52.202;20.950;2023-12-20T06:43:00;6.80;99.90
18454;DHT22;9356;52.202;20.950;2023-12-20T06:44:13;6.80;99.90
18454;DHT22;9356;52.202;20.950;2023-12-20T06:45:21;6.90;99.90
18454;DHT22;9356;52.202;20.950;2023-12-20T06:46:30;6.90;99.90
18454;DHT22;9356;52.202;20.950;2023-12-20T06:47:34;6.80;99.90
18454;DHT22;9356;52.202;20.950;2023-12-20T06:48:37;6.70;99.90
18454;DHT22;9356;52.202;20.950;2023-12-20T06:49:44;6.70;99.90
18454;DHT22;9356;52.202;20.950;2023-12-20T06:50:53;6.70;99.90
18454;DHT22;9356;52.202;20.950;2023-12-20T06:52:06;6.70;99.90
18454;DHT22;9356;52.202;20.950;2023-12-20T06:53:17;6.60;99.90
18454;DHT22;9356;52.202;20.950;2023-12-20T06:54:21;6.40;99.90
18454;DHT22;9356;52.202;20.950;2023-12-20T06:55:26;6.60;99.90
18454;DHT22;9356;52.202;20.950;2023-12-20T06:56:38;6.50;99.90
18454;DHT22;9356;52.202;20.950;2023-12-20T06:57:45;6.60;99.90
18454;DHT22;9356;52.202;20.950;2023-12-20T06:58:54;6.70;99.90
18454;DHT22;9356;52.202;20.950;2023-12-20T06:59:57;6.70;99.90
18454;DHT22;9356;52.202;20.950;2023-12-20T07:01:05;6.80;99.90
18454;DHT22;9356;52.202;20.950;2023-12-20T07:02:18;6.80;99.90
18454;DHT22;9356;52.202;20.950;2023-12-20T07:03:25;6.90;99.90
18454;DHT22;9356;52.202;20.950;2023-12-20T07:04:30;6.90;99.90
18454;DHT22;9356;52.202;20.950;2023-12-20T07:05:38;6.90;99.90
18454;DHT22;9356;52.202;20.950;2023-12-20T07:06:42;6.90;99.90
18454;DHT22;9356;52.202;20.950;2023-12-20T07:07:53;6.80;99.90
18454;DHT22;9356;52.202;20.950;2023-12-20T07:09:01;6.80;99.90
18454;DHT22;9356;52.202;20.950;2023-12-20T07:10:10;6.90;99.90
18454;DHT22;9356;52.202;20.950;2023-12-20T07:11:21;6.80;99.90
18454;DHT22;9356;52.202;20.950;2023-12-20T07:12:34;6.90;99.90
18454;DHT22;9356;52.202;20.950;2023-12-20T07:13:37;6.80;99.90
18454;DHT22;9356;52.202;20.950;2023-12-20T07:14:46;6.90;99.90
18454;DHT22;9356;52.202;20.950;2023-12-20T07:15:56;6.90;99.90
18454;DHT22;9356;52.202;20.950;2023-12-20T07:17:03;6.90;99.90
18454;DHT22;9356;52.202;20.950;2023-12-20T07:18:10;6.90;99.90